sensor_id;sensor_type;location;lat;lon;timestamp;P1;durP1;ratioP1;P2;durP2;ratioP2
76298;SDS011;65236;42.332;23.550;2023-01-15T00:00:47;869.42;;;828.67;;
76298;SDS011;65236;42.332;23.550;2023-01-15T00:03:13;690.70;;;657.10;;
76298;SDS011;65236;42.332;23.550;2023-01-15T00:05:38;774.10;;;739.13;;
76298;SDS011;65236;42.332;23.550;2023-01-15T00:08:04;790.90;;;754.07;;
76298;SDS011;65236;42.332;23.550;2023-01-15T00:10:29;794.60;;;757.17;;
76298;SDS011;65236;42.332;23.550;2023-01-15T00:12:55;871.30;;;831.17;;
76298;SDS011;65236;42.332;23.550;2023-01-15T00:15:20;473.75;;;447.05;;
76298;SDS011;65236;42.332;23.550;2023-01-15T00:17:46;799.22;;;762.22;;
76298;SDS011;65236;42.332;23.550;2023-01-15T00:20:11;786.40;;;750.20;;
76298;SDS011;65236;42.332;23.550;2023-01-15T00:22:37;783.00;;;747.10;;
76298;SDS011;65236;42.332;23.550;2023-01-15T00:25:04;785.45;;;749.65;;
76298;SDS011;65236;42.332;23.550;2023-01-15T00:27:49;799.42;;;762.30;;
76298;SDS011;65236;42.332;23.550;2023-01-15T00:30:14;789.77;;;753.47;;
76298;SDS011;65236;42.332;23.550;2023-01-15T00:32:42;787.50;;;751.63;;
76298;SDS011;65236;42.332;23.550;2023-01-15T00:35:12;785.17;;;749.42;;
76298;SDS011;65236;42.332;23.550;2023-01-15T00:37:38;781.40;;;745.78;;
76298;SDS011;65236;42.332;23.550;2023-01-15T00:40:04;781.50;;;745.90;;
76298;SDS011;65236;42.332;23.550;2023-01-15T00:42:30;787.55;;;751.33;;
76298;SDS011;65236;42.332;23.550;2023-01-15T00:44:56;803.47;;;765.03;;
76298;SDS011;65236;42.332;23.550;2023-01-15T00:47:21;791.53;;;754.00;;
76298;SDS011;65236;42.332;23.550;2023-01-15T00:49:46;773.33;;;738.40;;
76298;SDS011;65236;42.332;23.550;2023-01-15T00:52:13;782.63;;;747.15;;
76298;SDS011;65236;42.332;23.550;2023-01-15T00:54:39;773.20;;;738.35;;
76298;SDS011;65236;42.332;23.550;2023-01-15T00:57:04;782.93;;;747.63;;
76298;SDS011;65236;42.332;23.550;2023-01-15T00:59:29;779.17;;;744.13;;
76298;SDS011;65236;42.332;23.550;2023-01-15T01:01:55;787.83;;;752.00;;
76298;SDS011;65236;42.332;23.550;2023-01-15T01:04:20;785.03;;;749.47;;
76298;SDS011;65236;42.332;23.550;2023-01-15T01:06:46;788.92;;;752.28;;
76298;SDS011;65236;42.332;23.550;2023-01-15T01:09:14;867.50;;;827.73;;
76298;SDS011;65236;42.332;23.550;2023-01-15T01:11:40;789.25;;;752.45;;
76298;SDS011;65236;42.332;23.550;2023-01-15T01:14:08;782.73;;;747.03;;
76298;SDS011;65236;42.332;23.550;2023-01-15T01:16:35;786.40;;;750.60;;
76298;SDS011;65236;42.332;23.550;2023-01-15T01:19:06;783.63;;;747.97;;
76298;SDS011;65236;42.332;23.550;2023-01-15T01:21:34;772.97;;;738.47;;
76298;SDS011;65236;42.332;23.550;2023-01-15T01:24:01;780.55;;;745.60;;
76298;SDS011;65236;42.332;23.550;2023-01-15T01:26:27;785.57;;;749.90;;
76298;SDS011;65236;42.332;23.550;2023-01-15T01:28:55;782.28;;;747.13;;
76298;SDS011;65236;42.332;23.550;2023-01-15T01:31:21;785.90;;;750.45;;
76298;SDS011;65236;42.332;23.550;2023-01-15T01:33:51;783.27;;;747.77;;
76298;SDS011;65236;42.332;23.550;2023-01-15T01:36:18;774.65;;;739.75;;
76298;SDS011;65236;42.332;23.550;2023-01-15T01:38:48;789.60;;;753.03;;
76298;SDS011;65236;42.332;23.550;2023-01-15T01:41:17;784.28;;;748.17;;
76298;SDS011;65236;42.332;23.550;2023-01-15T01:43:53;801.70;;;763.83;;
76298;SDS011;65236;42.332;23.550;2023-01-15T01:46:26;789.90;;;753.40;;
76298;SDS011;65236;42.332;23.550;2023-01-15T01:48:54;788.70;;;751.97;;
76298;SDS011;65236;42.332;23.550;2023-01-15T01:51:24;787.63;;;750.53;;
76298;SDS011;65236;42.332;23.550;2023-01-15T01:53:52;787.85;;;751.22;;
76298;SDS011;65236;42.332;23.550;2023-01-15T01:56:17;780.30;;;745.00;;
76298;SDS011;65236;42.332;23.550;2023-01-15T01:58:44;953.78;;;903.97;;
76298;SDS011;65236;42.332;23.550;2023-01-15T02:01:13;813.30;;;773.80;;
76298;SDS011;65236;42.332;23.550;2023-01-15T02:03:39;810.38;;;771.72;;
76298;SDS011;65236;42.332;23.550;2023-01-15T02:06:05;799.70;;;762.40;;
76298;SDS011;65236;42.332;23.550;2023-01-15T02:08:34;793.05;;;756.22;;
76298;SDS011;65236;42.332;23.550;2023-01-15T02:11:03;795.70;;;759.15;;
76298;SDS011;65236;42.332;23.550;2023-01-15T02:18:55;783.47;;;748.10;;
76298;SDS011;65236;42.332;23.550;2023-01-15T02:26:49;785.80;;;750.40;;
76298;SDS011;65236;42.332;23.550;2023-01-15T02:29:37;791.28;;;755.33;;
76298;SDS011;65236;42.332;23.550;2023-01-15T02:37:54;780.17;;;745.17;;
76298;SDS011;65236;42.332;23.550;2023-01-15T02:40:24;788.53;;;752.67;;
76298;SDS011;65236;42.332;23.550;2023-01-15T02:42:52;788.67;;;752.90;;
76298;SDS011;65236;42.332;23.550;2023-01-15T02:45:19;789.10;;;753.53;;
76298;SDS011;65236;42.332;23.550;2023-01-15T02:47:51;783.97;;;748.58;;
76298;SDS011;65236;42.332;23.550;2023-01-15T02:50:19;804.60;;;766.95;;
76298;SDS011;65236;42.332;23.550;2023-01-15T02:52:56;797.17;;;760.20;;
76298;SDS011;65236;42.332;23.550;2023-01-15T02:55:26;797.35;;;760.33;;
76298;SDS011;65236;42.332;23.550;2023-01-15T02:57:56;801.97;;;764.07;;
76298;SDS011;65236;42.332;23.550;2023-01-15T03:00:25;805.10;;;766.88;;
76298;SDS011;65236;42.332;23.550;2023-01-15T03:02:58;796.88;;;759.05;;
76298;SDS011;65236;42.332;23.550;2023-01-15T03:05:31;797.60;;;759.97;;
76298;SDS011;65236;42.332;23.550;2023-01-15T03:08:03;799.92;;;762.22;;
76298;SDS011;65236;42.332;23.550;2023-01-15T03:10:37;802.97;;;765.13;;
76298;SDS011;65236;42.332;23.550;2023-01-15T03:13:10;802.85;;;764.65;;
76298;SDS011;65236;42.332;23.550;2023-01-15T03:18:35;782.50;;;747.05;;
76298;SDS011;65236;42.332;23.550;2023-01-15T03:21:07;792.17;;;755.70;;
76298;SDS011;65236;42.332;23.550;2023-01-15T03:23:37;800.67;;;762.83;;
76298;SDS011;65236;42.332;23.550;2023-01-15T03:26:07;798.00;;;760.78;;
76298;SDS011;65236;42.332;23.550;2023-01-15T03:28:33;806.63;;;768.37;;
76298;SDS011;65236;42.332;23.550;2023-01-15T03:31:00;800.15;;;763.05;;
76298;SDS011;65236;42.332;23.550;2023-01-15T03:33:27;790.20;;;753.90;;
76298;SDS011;65236;42.332;23.550;2023-01-15T03:35:55;787.38;;;751.72;;
76298;SDS011;65236;42.332;23.550;2023-01-15T03:38:24;786.25;;;751.00;;
76298;SDS011;65236;42.332;23.550;2023-01-15T03:41:14;783.17;;;747.87;;
76298;SDS011;65236;42.332;23.550;2023-01-15T03:43:46;786.00;;;750.28;;
76298;SDS011;65236;42.332;23.550;2023-01-15T03:49:05;793.92;;;757.25;;
76298;SDS011;65236;42.332;23.550;2023-01-15T04:00:18;783.83;;;748.30;;
76298;SDS011;65236;42.332;23.550;2023-01-15T04:02:45;784.63;;;749.35;;
76298;SDS011;65236;42.332;23.550;2023-01-15T04:05:11;782.00;;;747.15;;
76298;SDS011;65236;42.332;23.550;2023-01-15T04:07:39;797.80;;;761.70;;
76298;SDS011;65236;42.332;23.550;2023-01-15T04:10:06;783.20;;;747.95;;
76298;SDS011;65236;42.332;23.550;2023-01-15T04:12:33;700.00;;;667.63;;
76298;SDS011;65236;42.332;23.550;2023-01-15T04:14:59;789.00;;;753.53;;
76298;SDS011;65236;42.332;23.550;2023-01-15T04:17:24;787.83;;;752.17;;
76298;SDS011;65236;42.332;23.550;2023-01-15T04:19:49;795.15;;;758.35;;
76298;SDS011;65236;42.332;23.550;2023-01-15T04:22:15;795.63;;;758.13;;
76298;SDS011;65236;42.332;23.550;2023-01-15T04:24:41;797.80;;;760.80;;
76298;SDS011;65236;42.332;23.550;2023-01-15T04:27:06;789.53;;;753.88;;
76298;SDS011;65236;42.332;23.550;2023-01-15T04:29:31;791.57;;;755.73;;
76298;SDS011;65236;42.332;23.550;2023-01-15T04:31:57;785.00;;;749.50;;
76298;SDS011;65236;42.332;23.550;2023-01-15T04:34:23;789.77;;;753.77;;
76298;SDS011;65236;42.332;23.550;2023-01-15T04:36:50;790.10;;;754.33;;
76298;SDS011;65236;42.332;23.550;2023-01-15T04:39:16;782.35;;;747.33;;
76298;SDS011;65236;42.332;23.550;2023-01-15T04:41:41;790.03;;;753.93;;
76298;SDS011;65236;42.332;23.550;2023-01-15T04:44:25;787.83;;;752.25;;
76298;SDS011;65236;42.332;23.550;2023-01-15T04:46:52;785.13;;;749.77;;
76298;SDS011;65236;42.332;23.550;2023-01-15T04:49:19;797.47;;;760.75;;
76298;SDS011;65236;42.332;23.550;2023-01-15T04:51:44;789.27;;;752.50;;
76298;SDS011;65236;42.332;23.550;2023-01-15T04:54:11;791.03;;;754.70;;
76298;SDS011;65236;42.332;23.550;2023-01-15T04:56:47;788.20;;;752.33;;
76298;SDS011;65236;42.332;23.550;2023-01-15T04:59:16;799.55;;;762.30;;
76298;SDS011;65236;42.332;23.550;2023-01-15T05:01:43;790.57;;;754.50;;
76298;SDS011;65236;42.332;23.550;2023-01-15T05:04:09;776.38;;;741.88;;
76298;SDS011;65236;42.332;23.550;2023-01-15T05:06:35;778.90;;;744.17;;
76298;SDS011;65236;42.332;23.550;2023-01-15T05:09:00;784.47;;;749.17;;
76298;SDS011;65236;42.332;23.550;2023-01-15T05:11:26;785.03;;;749.63;;
76298;SDS011;65236;42.332;23.550;2023-01-15T05:13:52;786.95;;;751.58;;
76298;SDS011;65236;42.332;23.550;2023-01-15T05:16:19;784.50;;;749.25;;
76298;SDS011;65236;42.332;23.550;2023-01-15T05:18:48;783.30;;;748.15;;
76298;SDS011;65236;42.332;23.550;2023-01-15T05:21:15;782.58;;;747.10;;
76298;SDS011;65236;42.332;23.550;2023-01-15T05:23:43;884.30;;;844.40;;
76298;SDS011;65236;42.332;23.550;2023-01-15T05:26:08;801.95;;;764.95;;
76298;SDS011;65236;42.332;23.550;2023-01-15T05:28:34;776.13;;;741.10;;
76298;SDS011;65236;42.332;23.550;2023-01-15T05:31:04;784.97;;;749.55;;
76298;SDS011;65236;42.332;23.550;2023-01-15T05:33:31;782.97;;;747.93;;
76298;SDS011;65236;42.332;23.550;2023-01-15T05:36:01;784.47;;;749.20;;
76298;SDS011;65236;42.332;23.550;2023-01-15T05:38:28;771.43;;;737.47;;
76298;SDS011;65236;42.332;23.550;2023-01-15T05:40:53;784.22;;;748.83;;
76298;SDS011;65236;42.332;23.550;2023-01-15T05:43:19;784.20;;;748.97;;
76298;SDS011;65236;42.332;23.550;2023-01-15T05:45:44;693.80;;;662.10;;
76298;SDS011;65236;42.332;23.550;2023-01-15T05:48:09;786.72;;;751.50;;
76298;SDS011;65236;42.332;23.550;2023-01-15T05:50:35;786.50;;;750.30;;
76298;SDS011;65236;42.332;23.550;2023-01-15T05:53:00;777.93;;;742.73;;
76298;SDS011;65236;42.332;23.550;2023-01-15T05:55:25;784.03;;;748.43;;
76298;SDS011;65236;42.332;23.550;2023-01-15T05:57:51;785.70;;;750.13;;
76298;SDS011;65236;42.332;23.550;2023-01-15T06:00:16;786.10;;;750.92;;
76298;SDS011;65236;42.332;23.550;2023-01-15T06:02:42;782.80;;;747.87;;
76298;SDS011;65236;42.332;23.550;2023-01-15T06:05:08;782.60;;;747.85;;
76298;SDS011;65236;42.332;23.550;2023-01-15T06:07:33;774.57;;;740.27;;
76298;SDS011;65236;42.332;23.550;2023-01-15T06:09:59;774.57;;;740.10;;
76298;SDS011;65236;42.332;23.550;2023-01-15T06:12:24;964.40;;;914.13;;
76298;SDS011;65236;42.332;23.550;2023-01-15T06:14:49;826.57;;;785.37;;
76298;SDS011;65236;42.332;23.550;2023-01-15T06:17:15;811.37;;;772.37;;
76298;SDS011;65236;42.332;23.550;2023-01-15T06:19:40;786.73;;;750.93;;
76298;SDS011;65236;42.332;23.550;2023-01-15T06:22:06;794.25;;;757.75;;
76298;SDS011;65236;42.332;23.550;2023-01-15T06:24:31;788.63;;;752.97;;
76298;SDS011;65236;42.332;23.550;2023-01-15T06:26:57;793.43;;;757.40;;
76298;SDS011;65236;42.332;23.550;2023-01-15T06:29:22;780.80;;;745.92;;
76298;SDS011;65236;42.332;23.550;2023-01-15T06:31:47;782.70;;;747.73;;
76298;SDS011;65236;42.332;23.550;2023-01-15T06:34:13;787.20;;;751.80;;
76298;SDS011;65236;42.332;23.550;2023-01-15T06:36:39;804.42;;;766.90;;
76298;SDS011;65236;42.332;23.550;2023-01-15T06:39:04;800.73;;;763.33;;
76298;SDS011;65236;42.332;23.550;2023-01-15T06:41:29;879.27;;;839.53;;
76298;SDS011;65236;42.332;23.550;2023-01-15T06:44:14;793.70;;;756.75;;
76298;SDS011;65236;42.332;23.550;2023-01-15T06:47:18;783.97;;;748.78;;
76298;SDS011;65236;42.332;23.550;2023-01-15T06:49:44;783.40;;;748.17;;
76298;SDS011;65236;42.332;23.550;2023-01-15T06:52:10;785.75;;;750.03;;
76298;SDS011;65236;42.332;23.550;2023-01-15T06:54:36;790.95;;;754.92;;
76298;SDS011;65236;42.332;23.550;2023-01-15T06:57:02;803.43;;;765.70;;
76298;SDS011;65236;42.332;23.550;2023-01-15T06:59:28;789.55;;;752.97;;
76298;SDS011;65236;42.332;23.550;2023-01-15T07:01:53;798.77;;;762.03;;
76298;SDS011;65236;42.332;23.550;2023-01-15T07:04:19;789.13;;;753.23;;
76298;SDS011;65236;42.332;23.550;2023-01-15T07:06:45;799.50;;;762.78;;
76298;SDS011;65236;42.332;23.550;2023-01-15T07:09:10;795.53;;;759.03;;
76298;SDS011;65236;42.332;23.550;2023-01-15T07:11:36;789.33;;;753.03;;
76298;SDS011;65236;42.332;23.550;2023-01-15T07:14:13;802.40;;;765.10;;
76298;SDS011;65236;42.332;23.550;2023-01-15T07:16:45;803.65;;;766.20;;
76298;SDS011;65236;42.332;23.550;2023-01-15T07:19:11;800.13;;;763.07;;
76298;SDS011;65236;42.332;23.550;2023-01-15T07:21:37;803.72;;;766.22;;
76298;SDS011;65236;42.332;23.550;2023-01-15T07:24:03;800.57;;;763.00;;
76298;SDS011;65236;42.332;23.550;2023-01-15T07:26:29;809.53;;;770.70;;
76298;SDS011;65236;42.332;23.550;2023-01-15T07:28:55;810.83;;;771.43;;
76298;SDS011;65236;42.332;23.550;2023-01-15T07:31:20;819.53;;;779.80;;
76298;SDS011;65236;42.332;23.550;2023-01-15T07:33:46;889.85;;;848.70;;
76298;SDS011;65236;42.332;23.550;2023-01-15T07:36:11;806.67;;;768.63;;
76298;SDS011;65236;42.332;23.550;2023-01-15T07:38:37;806.20;;;768.47;;
76298;SDS011;65236;42.332;23.550;2023-01-15T07:41:02;812.53;;;774.28;;
76298;SDS011;65236;42.332;23.550;2023-01-15T07:43:46;799.17;;;761.90;;
76298;SDS011;65236;42.332;23.550;2023-01-15T07:46:30;805.40;;;767.92;;
76298;SDS011;65236;42.332;23.550;2023-01-15T07:49:14;811.28;;;772.50;;
76298;SDS011;65236;42.332;23.550;2023-01-15T07:51:58;821.17;;;780.85;;
76298;SDS011;65236;42.332;23.550;2023-01-15T07:54:24;811.97;;;772.83;;
76298;SDS011;65236;42.332;23.550;2023-01-15T07:56:50;813.05;;;774.08;;
76298;SDS011;65236;42.332;23.550;2023-01-15T07:59:17;812.65;;;773.75;;
76298;SDS011;65236;42.332;23.550;2023-01-15T08:01:42;818.03;;;777.17;;
76298;SDS011;65236;42.332;23.550;2023-01-15T08:04:08;902.20;;;857.67;;
76298;SDS011;65236;42.332;23.550;2023-01-15T08:06:34;826.60;;;785.33;;
76298;SDS011;65236;42.332;23.550;2023-01-15T08:09:00;718.73;;;681.30;;
76298;SDS011;65236;42.332;23.550;2023-01-15T08:11:25;843.47;;;800.90;;
76298;SDS011;65236;42.332;23.550;2023-01-15T08:14:10;826.15;;;784.65;;
76298;SDS011;65236;42.332;23.550;2023-01-15T08:16:53;836.97;;;794.28;;
76298;SDS011;65236;42.332;23.550;2023-01-15T08:19:19;836.00;;;793.50;;
76298;SDS011;65236;42.332;23.550;2023-01-15T08:21:44;842.43;;;798.73;;
76298;SDS011;65236;42.332;23.550;2023-01-15T08:24:10;846.58;;;802.13;;
76298;SDS011;65236;42.332;23.550;2023-01-15T08:26:35;851.10;;;805.90;;
76298;SDS011;65236;42.332;23.550;2023-01-15T08:29:00;857.53;;;811.23;;
76298;SDS011;65236;42.332;23.550;2023-01-15T08:31:26;854.73;;;809.33;;
76298;SDS011;65236;42.332;23.550;2023-01-15T08:33:51;846.10;;;801.90;;
76298;SDS011;65236;42.332;23.550;2023-01-15T08:36:17;848.97;;;804.65;;
76298;SDS011;65236;42.332;23.550;2023-01-15T08:38:42;849.10;;;803.67;;
76298;SDS011;65236;42.332;23.550;2023-01-15T08:41:08;858.40;;;811.87;;
76298;SDS011;65236;42.332;23.550;2023-01-15T08:43:34;863.23;;;815.83;;
76298;SDS011;65236;42.332;23.550;2023-01-15T08:46:00;811.77;;;770.00;;
76298;SDS011;65236;42.332;23.550;2023-01-15T08:48:28;786.80;;;745.58;;
76298;SDS011;65236;42.332;23.550;2023-01-15T08:50:55;758.25;;;717.70;;
76298;SDS011;65236;42.332;23.550;2023-01-15T08:53:21;760.73;;;719.50;;
76298;SDS011;65236;42.332;23.550;2023-01-15T08:55:48;901.80;;;850.78;;
76298;SDS011;65236;42.332;23.550;2023-01-15T08:58:14;710.23;;;668.33;;
76298;SDS011;65236;42.332;23.550;2023-01-15T09:00:40;813.03;;;767.17;;
76298;SDS011;65236;42.332;23.550;2023-01-15T09:03:06;797.47;;;752.50;;
76298;SDS011;65236;42.332;23.550;2023-01-15T09:05:32;807.87;;;762.20;;
76298;SDS011;65236;42.332;23.550;2023-01-15T09:07:58;818.78;;;772.00;;
76298;SDS011;65236;42.332;23.550;2023-01-15T09:10:23;814.10;;;767.93;;
76298;SDS011;65236;42.332;23.550;2023-01-15T09:12:49;838.43;;;789.43;;
76298;SDS011;65236;42.332;23.550;2023-01-15T09:15:14;831.50;;;782.50;;
76298;SDS011;65236;42.332;23.550;2023-01-15T09:17:40;827.25;;;777.78;;
76298;SDS011;65236;42.332;23.550;2023-01-15T09:20:10;857.37;;;806.70;;
76298;SDS011;65236;42.332;23.550;2023-01-15T09:22:37;829.40;;;780.28;;
76298;SDS011;65236;42.332;23.550;2023-01-15T09:25:02;764.07;;;718.07;;
76298;SDS011;65236;42.332;23.550;2023-01-15T09:27:28;749.03;;;704.65;;
76298;SDS011;65236;42.332;23.550;2023-01-15T09:29:54;768.27;;;723.43;;
76298;SDS011;65236;42.332;23.550;2023-01-15T09:32:20;804.47;;;757.77;;
76298;SDS011;65236;42.332;23.550;2023-01-15T09:34:46;583.13;;;547.15;;
76298;SDS011;65236;42.332;23.550;2023-01-15T09:37:11;597.63;;;560.57;;
76298;SDS011;65236;42.332;23.550;2023-01-15T09:39:37;545.53;;;512.53;;
76298;SDS011;65236;42.332;23.550;2023-01-15T09:42:08;602.80;;;566.35;;
76298;SDS011;65236;42.332;23.550;2023-01-15T09:53:49;610.50;;;575.22;;
76298;SDS011;65236;42.332;23.550;2023-01-15T09:56:05;621.35;;;585.17;;
76298;SDS011;65236;42.332;23.550;2023-01-15T09:58:40;630.70;;;594.07;;
76298;SDS011;65236;42.332;23.550;2023-01-15T10:01:06;623.67;;;586.70;;
76298;SDS011;65236;42.332;23.550;2023-01-15T10:03:41;590.42;;;555.42;;
76298;SDS011;65236;42.332;23.550;2023-01-15T10:06:20;454.20;;;427.00;;
76298;SDS011;65236;42.332;23.550;2023-01-15T10:08:50;601.20;;;565.65;;
76298;SDS011;65236;42.332;23.550;2023-01-15T10:14:46;548.25;;;516.17;;
76298;SDS011;65236;42.332;23.550;2023-01-15T10:17:24;568.85;;;535.80;;
76298;SDS011;65236;42.332;23.550;2023-01-15T10:19:59;582.20;;;548.17;;
76298;SDS011;65236;42.332;23.550;2023-01-15T10:25:01;588.35;;;554.25;;
76298;SDS011;65236;42.332;23.550;2023-01-15T10:27:32;578.10;;;544.30;;
76298;SDS011;65236;42.332;23.550;2023-01-15T10:30:00;547.47;;;515.47;;
76298;SDS011;65236;42.332;23.550;2023-01-15T10:35:03;551.87;;;519.77;;
76298;SDS011;65236;42.332;23.550;2023-01-15T10:37:55;545.97;;;513.63;;
76298;SDS011;65236;42.332;23.550;2023-01-15T10:43:14;588.00;;;552.47;;
76298;SDS011;65236;42.332;23.550;2023-01-15T10:45:52;594.25;;;558.78;;
76298;SDS011;65236;42.332;23.550;2023-01-15T10:48:33;752.58;;;705.03;;
76298;SDS011;65236;42.332;23.550;2023-01-15T10:51:12;739.88;;;693.85;;
76298;SDS011;65236;42.332;23.550;2023-01-15T10:53:42;746.15;;;700.47;;
76298;SDS011;65236;42.332;23.550;2023-01-15T10:56:14;715.87;;;672.20;;
76298;SDS011;65236;42.332;23.550;2023-01-15T10:58:54;701.75;;;659.00;;
76298;SDS011;65236;42.332;23.550;2023-01-15T11:01:26;702.97;;;660.33;;
76298;SDS011;65236;42.332;23.550;2023-01-15T11:03:52;681.15;;;639.08;;
76298;SDS011;65236;42.332;23.550;2023-01-15T11:06:18;633.73;;;593.50;;
76298;SDS011;65236;42.332;23.550;2023-01-15T11:08:52;695.90;;;652.27;;
76298;SDS011;65236;42.332;23.550;2023-01-15T11:14:07;714.95;;;671.63;;
76298;SDS011;65236;42.332;23.550;2023-01-15T11:16:51;660.05;;;619.38;;
76298;SDS011;65236;42.332;23.550;2023-01-15T11:19:33;648.15;;;608.03;;
76298;SDS011;65236;42.332;23.550;2023-01-15T11:24:37;589.85;;;553.38;;
76298;SDS011;65236;42.332;23.550;2023-01-15T11:27:18;699.47;;;657.25;;
76298;SDS011;65236;42.332;23.550;2023-01-15T11:29:51;609.50;;;571.65;;
76298;SDS011;65236;42.332;23.550;2023-01-15T11:32:27;612.03;;;573.30;;
76298;SDS011;65236;42.332;23.550;2023-01-15T11:37:32;604.45;;;564.08;;
76298;SDS011;65236;42.332;23.550;2023-01-15T11:39:58;640.53;;;597.37;;
76298;SDS011;65236;42.332;23.550;2023-01-15T11:42:32;543.38;;;505.85;;
76298;SDS011;65236;42.332;23.550;2023-01-15T11:45:17;599.30;;;559.42;;
76298;SDS011;65236;42.332;23.550;2023-01-15T11:48:12;628.17;;;586.83;;
76298;SDS011;65236;42.332;23.550;2023-01-15T11:53:52;569.63;;;531.63;;
76298;SDS011;65236;42.332;23.550;2023-01-15T11:56:21;516.67;;;482.27;;
76298;SDS011;65236;42.332;23.550;2023-01-15T11:58:50;547.78;;;513.17;;
76298;SDS011;65236;42.332;23.550;2023-01-15T12:01:32;527.15;;;493.23;;
76298;SDS011;65236;42.332;23.550;2023-01-15T12:04:00;493.63;;;462.25;;
76298;SDS011;65236;42.332;23.550;2023-01-15T12:06:29;555.13;;;521.27;;
76298;SDS011;65236;42.332;23.550;2023-01-15T12:09:09;427.83;;;400.75;;
76298;SDS011;65236;42.332;23.550;2023-01-15T12:14:39;415.55;;;388.80;;
76298;SDS011;65236;42.332;23.550;2023-01-15T12:25:40;423.75;;;395.73;;
76298;SDS011;65236;42.332;23.550;2023-01-15T12:28:28;400.90;;;374.60;;
76298;SDS011;65236;42.332;23.550;2023-01-15T12:36:22;469.40;;;438.92;;
76298;SDS011;65236;42.332;23.550;2023-01-15T12:41:59;1009.38;;;932.65;;
76298;SDS011;65236;42.332;23.550;2023-01-15T12:44:52;1013.95;;;936.03;;
76298;SDS011;65236;42.332;23.550;2023-01-15T12:50:28;959.25;;;885.63;;
76298;SDS011;65236;42.332;23.550;2023-01-15T12:53:18;933.17;;;861.38;;
76298;SDS011;65236;42.332;23.550;2023-01-15T12:58:31;939.85;;;867.38;;
76298;SDS011;65236;42.332;23.550;2023-01-15T13:04:05;986.85;;;910.30;;
76298;SDS011;65236;42.332;23.550;2023-01-15T13:06:31;1022.65;;;943.30;;
76298;SDS011;65236;42.332;23.550;2023-01-15T13:09:01;1017.03;;;939.10;;
76298;SDS011;65236;42.332;23.550;2023-01-15T13:11:32;964.17;;;890.92;;
76298;SDS011;65236;42.332;23.550;2023-01-15T13:13:58;923.60;;;854.77;;
76298;SDS011;65236;42.332;23.550;2023-01-15T13:21:56;743.08;;;690.05;;
76298;SDS011;65236;42.332;23.550;2023-01-15T13:32:38;647.05;;;602.40;;
76298;SDS011;65236;42.332;23.550;2023-01-15T13:35:11;637.10;;;594.15;;
76298;SDS011;65236;42.332;23.550;2023-01-15T13:37:45;667.80;;;622.93;;
76298;SDS011;65236;42.332;23.550;2023-01-15T13:42:46;668.28;;;624.85;;
76298;SDS011;65236;42.332;23.550;2023-01-15T13:47:42;665.27;;;622.57;;
76298;SDS011;65236;42.332;23.550;2023-01-15T13:50:12;661.75;;;619.08;;
76298;SDS011;65236;42.332;23.550;2023-01-15T13:52:42;662.60;;;620.60;;
76298;SDS011;65236;42.332;23.550;2023-01-15T13:57:40;626.47;;;586.92;;
76298;SDS011;65236;42.332;23.550;2023-01-15T14:00:07;674.45;;;631.10;;
76298;SDS011;65236;42.332;23.550;2023-01-15T14:02:55;681.22;;;637.85;;
76298;SDS011;65236;42.332;23.550;2023-01-15T14:07:53;627.93;;;588.80;;
76298;SDS011;65236;42.332;23.550;2023-01-15T14:12:50;645.97;;;605.60;;
76298;SDS011;65236;42.332;23.550;2023-01-15T14:18:23;625.78;;;587.72;;
76298;SDS011;65236;42.332;23.550;2023-01-15T14:20:55;648.40;;;608.77;;
76298;SDS011;65236;42.332;23.550;2023-01-15T14:26:06;629.25;;;591.80;;
76298;SDS011;65236;42.332;23.550;2023-01-15T14:31:31;599.22;;;564.40;;
76298;SDS011;65236;42.332;23.550;2023-01-15T14:34:12;636.57;;;600.10;;
76298;SDS011;65236;42.332;23.550;2023-01-15T14:39:23;589.35;;;555.95;;
76298;SDS011;65236;42.332;23.550;2023-01-15T14:42:29;607.97;;;573.47;;
76298;SDS011;65236;42.332;23.550;2023-01-15T14:45:21;598.10;;;565.33;;
76298;SDS011;65236;42.332;23.550;2023-01-15T14:48:38;566.17;;;535.20;;
76298;SDS011;65236;42.332;23.550;2023-01-15T14:51:06;557.78;;;526.67;;
76298;SDS011;65236;42.332;23.550;2023-01-15T14:53:38;548.15;;;517.80;;
76298;SDS011;65236;42.332;23.550;2023-01-15T14:56:19;539.30;;;509.35;;
76298;SDS011;65236;42.332;23.550;2023-01-15T14:58:48;525.22;;;496.27;;
76298;SDS011;65236;42.332;23.550;2023-01-15T15:01:17;527.13;;;498.40;;
76298;SDS011;65236;42.332;23.550;2023-01-15T15:07:21;521.00;;;492.75;;
76298;SDS011;65236;42.332;23.550;2023-01-15T15:09:41;486.35;;;459.90;;
76298;SDS011;65236;42.332;23.550;2023-01-15T15:12:38;469.33;;;443.88;;
76298;SDS011;65236;42.332;23.550;2023-01-15T15:17:43;526.05;;;498.70;;
76298;SDS011;65236;42.332;23.550;2023-01-15T15:25:54;670.63;;;637.63;;
76298;SDS011;65236;42.332;23.550;2023-01-15T15:28:21;674.27;;;641.13;;
76298;SDS011;65236;42.332;23.550;2023-01-15T15:30:46;662.05;;;628.97;;
76298;SDS011;65236;42.332;23.550;2023-01-15T15:33:17;630.58;;;599.40;;
76298;SDS011;65236;42.332;23.550;2023-01-15T15:35:48;643.88;;;612.03;;
76298;SDS011;65236;42.332;23.550;2023-01-15T15:38:17;643.27;;;611.67;;
76298;SDS011;65236;42.332;23.550;2023-01-15T15:40:46;624.63;;;594.10;;
76298;SDS011;65236;42.332;23.550;2023-01-15T15:43:17;607.42;;;577.67;;
76298;SDS011;65236;42.332;23.550;2023-01-15T15:46:27;552.67;;;524.65;;
76298;SDS011;65236;42.332;23.550;2023-01-15T15:49:13;540.03;;;514.03;;
76298;SDS011;65236;42.332;23.550;2023-01-15T15:52:00;411.73;;;390.53;;
76298;SDS011;65236;42.332;23.550;2023-01-15T15:54:25;491.20;;;467.05;;
76298;SDS011;65236;42.332;23.550;2023-01-15T15:57:11;502.52;;;477.42;;
76298;SDS011;65236;42.332;23.550;2023-01-15T15:59:45;510.63;;;485.42;;
76298;SDS011;65236;42.332;23.550;2023-01-15T16:02:24;464.63;;;441.13;;
76298;SDS011;65236;42.332;23.550;2023-01-15T16:05:03;445.23;;;422.33;;
76298;SDS011;65236;42.332;23.550;2023-01-15T16:07:44;438.65;;;415.92;;
76298;SDS011;65236;42.332;23.550;2023-01-15T16:10:12;393.63;;;372.92;;
76298;SDS011;65236;42.332;23.550;2023-01-15T16:12:47;433.55;;;411.83;;
76298;SDS011;65236;42.332;23.550;2023-01-15T16:15:31;402.53;;;381.80;;
76298;SDS011;65236;42.332;23.550;2023-01-15T16:18:01;337.80;;;319.95;;
76298;SDS011;65236;42.332;23.550;2023-01-15T16:20:27;334.70;;;317.20;;